sensor_id;sensor_type;location;lat;lon;timestamp;pressure;altitude;pressure_sealevel;temperature;humidity
15634;BME280;14654;48.898;8.308;2022-07-23T00:01:00;100161.56;;;24.41;96.31
15634;BME280;14654;48.898;8.308;2022-07-23T00:03:26;100170.53;;;24.38;96.13
15634;BME280;14654;48.898;8.308;2022-07-23T00:05:51;100169.91;;;24.34;96.15
15634;BME280;14654;48.898;8.308;2022-07-23T00:08:17;100164.00;;;24.31;95.96
15634;BME280;14654;48.898;8.308;2022-07-23T00:10:42;100166.03;;;24.27;95.75
15634;BME280;14654;48.898;8.308;2022-07-23T00:13:08;100166.22;;;24.24;95.83
15634;BME280;14654;48.898;8.308;2022-07-23T00:15:33;100156.78;;;24.20;95.70
15634;BME280;14654;48.898;8.308;2022-07-23T00:17:59;100154.34;;;24.17;94.85
15634;BME280;14654;48.898;8.308;2022-07-23T00:20:24;100159.97;;;24.12;94.45
15634;BME280;14654;48.898;8.308;2022-07-23T00:22:51;100168.22;;;24.08;94.37
15634;BME280;14654;48.898;8.308;2022-07-23T00:25:17;100171.19;;;24.03;94.02
15634;BME280;14654;48.898;8.308;2022-07-23T00:27:43;100179.31;;;24.00;94.16
15634;BME280;14654;48.898;8.308;2022-07-23T00:30:09;100180.41;;;23.96;94.31
15634;BME280;14654;48.898;8.308;2022-07-23T00:32:46;100176.19;;;23.93;94.37
15634;BME280;14654;48.898;8.308;2022-07-23T00:35:12;100181.78;;;23.88;94.65
15634;BME280;14654;48.898;8.308;2022-07-23T00:37:38;100179.34;;;23.85;94.52
15634;BME280;14654;48.898;8.308;2022-07-23T00:40:04;100179.53;;;23.82;94.51
15634;BME280;14654;48.898;8.308;2022-07-23T00:42:31;100178.78;;;23.80;93.93
15634;BME280;14654;48.898;8.308;2022-07-23T00:44:56;100176.34;;;23.77;93.28
15634;BME280;14654;48.898;8.308;2022-07-23T00:47:22;100165.78;;;23.77;92.38
15634;BME280;14654;48.898;8.308;2022-07-23T00:49:47;100162.41;;;23.75;91.35
15634;BME280;14654;48.898;8.308;2022-07-23T00:52:12;100159.88;;;23.73;90.50
15634;BME280;14654;48.898;8.308;2022-07-23T00:54:38;100148.66;;;23.70;89.64
15634;BME280;14654;48.898;8.308;2022-07-23T00:57:04;100143.56;;;23.67;89.27
15634;BME280;14654;48.898;8.308;2022-07-23T00:59:29;100136.78;;;23.63;89.44
15634;BME280;14654;48.898;8.308;2022-07-23T01:01:54;100136.16;;;23.59;89.49
15634;BME280;14654;48.898;8.308;2022-07-23T01:04:20;100136.34;;;23.56;89.25
15634;BME280;14654;48.898;8.308;2022-07-23T01:06:45;100140.81;;;23.55;89.10
15634;BME280;14654;48.898;8.308;2022-07-23T01:09:11;100136.56;;;23.53;88.52
15634;BME280;14654;48.898;8.308;2022-07-23T01:11:37;100133.19;;;23.51;88.38
15634;BME280;14654;48.898;8.308;2022-07-23T01:14:14;100148.19;;;23.50;88.49
15634;BME280;14654;48.898;8.308;2022-07-23T01:16:41;100159.78;;;23.48;88.86
15634;BME280;14654;48.898;8.308;2022-07-23T01:19:10;100151.13;;;23.46;89.27
15634;BME280;14654;48.898;8.308;2022-07-23T01:21:41;100162.81;;;23.41;89.12
15634;BME280;14654;48.898;8.308;2022-07-23T01:24:08;100154.25;;;23.38;89.19
15634;BME280;14654;48.898;8.308;2022-07-23T01:26:34;100154.38;;;23.36;89.40
15634;BME280;14654;48.898;8.308;2022-07-23T01:28:59;100156.34;;;23.33;89.30
15634;BME280;14654;48.898;8.308;2022-07-23T01:31:25;100154.00;;;23.28;89.52
15634;BME280;14654;48.898;8.308;2022-07-23T01:33:51;100152.63;;;23.22;89.99
15634;BME280;14654;48.898;8.308;2022-07-23T01:36:16;100145.78;;;23.18;89.68
15634;BME280;14654;48.898;8.308;2022-07-23T01:38:42;100145.25;;;23.13;89.70
15634;BME280;14654;48.898;8.308;2022-07-23T01:41:07;100136.91;;;23.06;89.19
15634;BME280;14654;48.898;8.308;2022-07-23T01:43:32;100147.72;;;23.02;89.41
15634;BME280;14654;48.898;8.308;2022-07-23T01:45:58;100146.25;;;22.97;89.59
15634;BME280;14654;48.898;8.308;2022-07-23T01:48:26;100154.34;;;22.94;89.68
15634;BME280;14654;48.898;8.308;2022-07-23T01:50:51;100148.50;;;22.89;89.82
15634;BME280;14654;48.898;8.308;2022-07-23T01:53:17;100147.09;;;22.83;89.66
15634;BME280;14654;48.898;8.308;2022-07-23T01:55:43;100143.81;;;22.80;89.47
15634;BME280;14654;48.898;8.308;2022-07-23T01:58:08;100143.16;;;22.76;88.49
15634;BME280;14654;48.898;8.308;2022-07-23T02:00:34;100140.72;;;22.73;88.81
15634;BME280;14654;48.898;8.308;2022-07-23T02:02:59;100153.16;;;22.71;89.46
15634;BME280;14654;48.898;8.308;2022-07-23T02:05:25;100155.03;;;22.69;89.55
15634;BME280;14654;48.898;8.308;2022-07-23T02:07:51;100152.56;;;22.66;89.39
15634;BME280;14654;48.898;8.308;2022-07-23T02:10:17;100158.91;;;22.63;88.88
15634;BME280;14654;48.898;8.308;2022-07-23T02:12:43;100161.72;;;22.60;88.60
15634;BME280;14654;48.898;8.308;2022-07-23T02:15:08;100160.13;;;22.58;89.03
15634;BME280;14654;48.898;8.308;2022-07-23T02:17:34;100157.66;;;22.55;88.71
15634;BME280;14654;48.898;8.308;2022-07-23T02:19:59;100164.00;;;22.52;89.05
15634;BME280;14654;48.898;8.308;2022-07-23T02:22:25;100165.75;;;22.51;88.93
15634;BME280;14654;48.898;8.308;2022-07-23T02:24:50;100165.94;;;22.48;89.61
15634;BME280;14654;48.898;8.308;2022-07-23T02:27:16;100162.38;;;22.49;89.25
15634;BME280;14654;48.898;8.308;2022-07-23T02:29:41;100159.91;;;22.46;89.46
15634;BME280;14654;48.898;8.308;2022-07-23T02:32:09;100165.41;;;22.43;90.16
15634;BME280;14654;48.898;8.308;2022-07-23T02:34:34;100167.31;;;22.39;89.66
15634;BME280;14654;48.898;8.308;2022-07-23T02:37:00;100181.53;;;22.37;90.30
15634;BME280;14654;48.898;8.308;2022-07-23T02:39:25;100183.34;;;22.36;90.77
15634;BME280;14654;48.898;8.308;2022-07-23T02:41:51;100187.75;;;22.36;91.17
15634;BME280;14654;48.898;8.308;2022-07-23T02:44:16;100189.63;;;22.34;91.20
15634;BME280;14654;48.898;8.308;2022-07-23T02:46:41;100194.06;;;22.33;91.19
15634;BME280;14654;48.898;8.308;2022-07-23T02:49:07;100195.00;;;22.32;91.61
15634;BME280;14654;48.898;8.308;2022-07-23T02:51:32;100198.56;;;22.31;91.58
15634;BME280;14654;48.898;8.308;2022-07-23T02:53:58;100202.03;;;22.32;91.80
15634;BME280;14654;48.898;8.308;2022-07-23T02:56:23;100205.66;;;22.31;91.54
15634;BME280;14654;48.898;8.308;2022-07-23T02:58:49;100211.00;;;22.29;91.41
15634;BME280;14654;48.898;8.308;2022-07-23T03:01:14;100216.09;;;22.32;91.91
15634;BME280;14654;48.898;8.308;2022-07-23T03:03:39;100211.47;;;22.36;92.13
15634;BME280;14654;48.898;8.308;2022-07-23T03:06:05;100213.00;;;22.40;92.18
15634;BME280;14654;48.898;8.308;2022-07-23T03:08:30;100220.75;;;22.43;92.65
15634;BME280;14654;48.898;8.308;2022-07-23T03:10:56;100217.19;;;22.44;92.33
15634;BME280;14654;48.898;8.308;2022-07-23T03:13:21;100230.53;;;22.41;92.44
15634;BME280;14654;48.898;8.308;2022-07-23T03:15:47;100239.47;;;22.38;92.85
15634;BME280;14654;48.898;8.308;2022-07-23T03:18:12;100235.22;;;22.36;92.69
15634;BME280;14654;48.898;8.308;2022-07-23T03:20:37;100239.53;;;22.37;92.77
15634;BME280;14654;48.898;8.308;2022-07-23T03:23:03;100227.28;;;22.36;92.44
15634;BME280;14654;48.898;8.308;2022-07-23T03:25:28;100218.56;;;22.35;92.10
15634;BME280;14654;48.898;8.308;2022-07-23T03:27:54;100229.09;;;22.35;91.72
15634;BME280;14654;48.898;8.308;2022-07-23T03:30:19;100226.63;;;22.32;91.84
15634;BME280;14654;48.898;8.308;2022-07-23T03:32:45;100227.56;;;22.31;92.03
15634;BME280;14654;48.898;8.308;2022-07-23T03:35:10;100232.09;;;22.29;92.39
15634;BME280;14654;48.898;8.308;2022-07-23T03:37:35;100233.88;;;22.29;92.64
15634;BME280;14654;48.898;8.308;2022-07-23T03:40:01;100223.34;;;22.29;92.73
15634;BME280;14654;48.898;8.308;2022-07-23T03:42:27;100226.06;;;22.27;92.83
15634;BME280;14654;48.898;8.308;2022-07-23T03:44:52;100217.31;;;22.27;92.57
15634;BME280;14654;48.898;8.308;2022-07-23T03:47:17;100204.88;;;22.29;91.99
15634;BME280;14654;48.898;8.308;2022-07-23T03:49:47;100212.59;;;22.32;91.62
15634;BME280;14654;48.898;8.308;2022-07-23T03:52:13;100198.28;;;22.36;91.64
15634;BME280;14654;48.898;8.308;2022-07-23T03:54:38;100195.66;;;22.36;91.31
15634;BME280;14654;48.898;8.308;2022-07-23T03:57:04;100203.50;;;22.37;91.37
15634;BME280;14654;48.898;8.308;2022-07-23T03:59:37;100212.34;;;22.36;91.29
15634;BME280;14654;48.898;8.308;2022-07-23T04:02:02;100228.22;;;22.35;91.12
15634;BME280;14654;48.898;8.308;2022-07-23T04:04:27;100234.44;;;22.34;91.43
15634;BME280;14654;48.898;8.308;2022-07-23T04:06:56;100241.53;;;22.33;92.12
15634;BME280;14654;48.898;8.308;2022-07-23T04:09:21;100254.69;;;22.33;92.48
15634;BME280;14654;48.898;8.308;2022-07-23T04:11:46;100254.69;;;22.33;92.46
15634;BME280;14654;48.898;8.308;2022-07-23T04:14:12;100259.03;;;22.34;92.65
15634;BME280;14654;48.898;8.308;2022-07-23T04:16:37;100250.94;;;22.37;92.62
15634;BME280;14654;48.898;8.308;2022-07-23T04:19:03;100249.16;;;22.38;92.69
15634;BME280;14654;48.898;8.308;2022-07-23T04:21:29;100256.97;;;22.39;93.04
15634;BME280;14654;48.898;8.308;2022-07-23T04:23:55;100247.38;;;22.38;93.14
15634;BME280;14654;48.898;8.308;2022-07-23T04:26:20;100251.78;;;22.38;92.85
15634;BME280;14654;48.898;8.308;2022-07-23T04:28:46;100246.41;;;22.39;92.41
15634;BME280;14654;48.898;8.308;2022-07-23T04:31:11;100245.31;;;22.44;92.51
15634;BME280;14654;48.898;8.308;2022-07-23T04:33:37;100249.50;;;22.48;91.91
15634;BME280;14654;48.898;8.308;2022-07-23T04:36:03;100252.59;;;22.55;92.01
15634;BME280;14654;48.898;8.308;2022-07-23T04:38:28;100253.44;;;22.55;91.86
15634;BME280;14654;48.898;8.308;2022-07-23T04:40:53;100264.56;;;22.60;92.45
15634;BME280;14654;48.898;8.308;2022-07-23T04:43:19;100285.50;;;22.63;92.47
15634;BME280;14654;48.898;8.308;2022-07-23T04:45:46;100291.25;;;22.70;92.30
15634;BME280;14654;48.898;8.308;2022-07-23T04:48:11;100279.59;;;22.74;92.15
15634;BME280;14654;48.898;8.308;2022-07-23T04:50:36;100270.72;;;22.75;91.20
15634;BME280;14654;48.898;8.308;2022-07-23T04:53:02;100277.78;;;22.75;91.54
15634;BME280;14654;48.898;8.308;2022-07-23T04:55:28;100283.16;;;22.73;91.45
15634;BME280;14654;48.898;8.308;2022-07-23T04:57:53;100292.00;;;22.72;91.45
15634;BME280;14654;48.898;8.308;2022-07-23T05:00:18;100292.00;;;22.72;91.44
15634;BME280;14654;48.898;8.308;2022-07-23T05:02:44;100285.88;;;22.72;91.35
15634;BME280;14654;48.898;8.308;2022-07-23T05:05:12;100281.34;;;22.74;91.47
15634;BME280;14654;48.898;8.308;2022-07-23T05:07:38;100275.91;;;22.77;91.69
15634;BME280;14654;48.898;8.308;2022-07-23T05:10:03;100283.53;;;22.81;92.02
15634;BME280;14654;48.898;8.308;2022-07-23T05:12:29;100286.00;;;22.84;92.09
15634;BME280;14654;48.898;8.308;2022-07-23T05:14:54;100280.44;;;22.89;92.43
15634;BME280;14654;48.898;8.308;2022-07-23T05:17:20;100286.47;;;22.91;92.87
15634;BME280;14654;48.898;8.308;2022-07-23T05:19:47;100272.22;;;22.94;92.67
15634;BME280;14654;48.898;8.308;2022-07-23T05:22:13;100270.28;;;22.97;92.72
15634;BME280;14654;48.898;8.308;2022-07-23T05:24:38;100269.78;;;23.05;92.69
15634;BME280;14654;48.898;8.308;2022-07-23T05:27:03;100270.03;;;23.15;93.23
15634;BME280;14654;48.898;8.308;2022-07-23T05:29:29;100275.63;;;23.25;93.46
15634;BME280;14654;48.898;8.308;2022-07-23T05:31:54;100276.97;;;23.32;93.95
15634;BME280;14654;48.898;8.308;2022-07-23T05:34:19;100270.44;;;23.38;94.46
15634;BME280;14654;48.898;8.308;2022-07-23T05:36:45;100275.53;;;23.41;94.94
15634;BME280;14654;48.898;8.308;2022-07-23T05:39:10;100286.94;;;23.41;95.74
15634;BME280;14654;48.898;8.308;2022-07-23T05:41:36;100283.53;;;23.39;96.05
15634;BME280;14654;48.898;8.308;2022-07-23T05:44:01;100295.25;;;23.35;96.59
15634;BME280;14654;48.898;8.308;2022-07-23T05:46:27;100299.97;;;23.30;96.45
15634;BME280;14654;48.898;8.308;2022-07-23T05:48:52;100310.06;;;23.23;96.88
15634;BME280;14654;48.898;8.308;2022-07-23T05:51:21;100315.78;;;23.16;97.13
15634;BME280;14654;48.898;8.308;2022-07-23T05:53:47;100312.03;;;23.05;97.11
15634;BME280;14654;48.898;8.308;2022-07-23T05:56:13;100320.47;;;22.96;97.97
15634;BME280;14654;48.898;8.308;2022-07-23T05:58:38;100330.38;;;22.92;98.45
15634;BME280;14654;48.898;8.308;2022-07-23T06:01:03;100335.84;;;22.89;99.42
15634;BME280;14654;48.898;8.308;2022-07-23T06:03:29;100343.00;;;22.87;100.00
15634;BME280;14654;48.898;8.308;2022-07-23T06:05:54;100359.09;;;22.82;100.00
15634;BME280;14654;48.898;8.308;2022-07-23T06:08:19;100374.44;;;22.76;100.00
15634;BME280;14654;48.898;8.308;2022-07-23T06:10:45;100359.34;;;22.63;100.00
15634;BME280;14654;48.898;8.308;2022-07-23T06:13:10;100351.28;;;22.50;100.00
15634;BME280;14654;48.898;8.308;2022-07-23T06:15:36;100340.38;;;22.41;100.00
15634;BME280;14654;48.898;8.308;2022-07-23T06:18:01;100335.50;;;22.34;100.00
15634;BME280;14654;48.898;8.308;2022-07-23T06:20:26;100338.91;;;22.36;100.00
15634;BME280;14654;48.898;8.308;2022-07-23T06:22:52;100349.16;;;22.41;100.00
15634;BME280;14654;48.898;8.308;2022-07-23T06:25:17;100352.50;;;22.45;100.00
15634;BME280;14654;48.898;8.308;2022-07-23T06:27:43;100348.81;;;22.47;100.00
15634;BME280;14654;48.898;8.308;2022-07-23T06:30:08;100349.97;;;22.43;100.00
15634;BME280;14654;48.898;8.308;2022-07-23T06:32:35;100360.75;;;22.38;100.00
15634;BME280;14654;48.898;8.308;2022-07-23T06:35:00;100358.13;;;22.38;100.00
15634;BME280;14654;48.898;8.308;2022-07-23T06:37:26;100371.13;;;22.42;100.00
15634;BME280;14654;48.898;8.308;2022-07-23T06:39:51;100373.16;;;22.52;100.00
15634;BME280;14654;48.898;8.308;2022-07-23T06:42:17;100359.25;;;22.65;100.00
15634;BME280;14654;48.898;8.308;2022-07-23T06:44:42;100349.31;;;22.84;100.00
15634;BME280;14654;48.898;8.308;2022-07-23T06:47:07;100351.03;;;23.14;100.00
15634;BME280;14654;48.898;8.308;2022-07-23T06:49:33;100348.53;;;23.42;100.00
15634;BME280;14654;48.898;8.308;2022-07-23T06:51:58;100358.72;;;23.48;100.00
15634;BME280;14654;48.898;8.308;2022-07-23T06:54:24;100365.41;;;23.39;100.00
15634;BME280;14654;48.898;8.308;2022-07-23T06:56:49;100367.09;;;23.26;100.00
15634;BME280;14654;48.898;8.308;2022-07-23T06:59:15;100373.09;;;23.13;100.00
15634;BME280;14654;48.898;8.308;2022-07-23T07:01:40;100359.78;;;23.01;100.00
15634;BME280;14654;48.898;8.308;2022-07-23T07:04:05;100360.47;;;22.90;100.00
15634;BME280;14654;48.898;8.308;2022-07-23T07:06:31;100366.19;;;22.82;100.00
15634;BME280;14654;48.898;8.308;2022-07-23T07:08:56;100357.50;;;22.80;100.00
15634;BME280;14654;48.898;8.308;2022-07-23T07:11:22;100355.72;;;22.80;100.00
15634;BME280;14654;48.898;8.308;2022-07-23T07:13:49;100353.38;;;22.90;100.00
15634;BME280;14654;48.898;8.308;2022-07-23T07:16:14;100369.03;;;23.08;100.00
15634;BME280;14654;48.898;8.308;2022-07-23T07:18:39;100375.78;;;23.28;100.00
15634;BME280;14654;48.898;8.308;2022-07-23T07:21:05;100381.47;;;23.51;100.00
15634;BME280;14654;48.898;8.308;2022-07-23T07:23:31;100371.59;;;23.67;100.00
15634;BME280;14654;48.898;8.308;2022-07-23T07:25:57;100373.69;;;23.77;100.00
15634;BME280;14654;48.898;8.308;2022-07-23T07:28:22;100379.44;;;23.83;100.00
15634;BME280;14654;48.898;8.308;2022-07-23T07:30:47;100382.66;;;23.88;100.00
15634;BME280;14654;48.898;8.308;2022-07-23T07:33:13;100382.34;;;23.93;100.00
15634;BME280;14654;48.898;8.308;2022-07-23T07:35:38;100375.38;;;24.34;100.00
15634;BME280;14654;48.898;8.308;2022-07-23T07:38:03;100379.34;;;24.54;100.00
15634;BME280;14654;48.898;8.308;2022-07-23T07:40:29;100378.28;;;24.57;100.00
15634;BME280;14654;48.898;8.308;2022-07-23T07:42:54;100386.59;;;24.50;100.00
15634;BME280;14654;48.898;8.308;2022-07-23T07:45:23;100389.78;;;24.43;100.00
15634;BME280;14654;48.898;8.308;2022-07-23T07:47:48;100389.66;;;24.44;100.00
15634;BME280;14654;48.898;8.308;2022-07-23T07:50:14;100393.19;;;24.98;100.00
15634;BME280;14654;48.898;8.308;2022-07-23T07:52:40;100398.19;;;25.67;100.00
15634;BME280;14654;48.898;8.308;2022-07-23T07:55:07;100397.31;;;26.41;100.00
15634;BME280;14654;48.898;8.308;2022-07-23T07:57:33;100401.03;;;27.10;99.20
15634;BME280;14654;48.898;8.308;2022-07-23T07:59:59;100405.06;;;27.27;97.47
15634;BME280;14654;48.898;8.308;2022-07-23T08:02:24;100404.72;;;27.20;96.64
15634;BME280;14654;48.898;8.308;2022-07-23T08:04:50;100409.72;;;27.01;97.29
15634;BME280;14654;48.898;8.308;2022-07-23T08:07:16;100408.41;;;26.95;97.69
15634;BME280;14654;48.898;8.308;2022-07-23T08:09:41;100412.53;;;27.33;96.75
15634;BME280;14654;48.898;8.308;2022-07-23T08:12:07;100414.06;;;27.60;95.39
15634;BME280;14654;48.898;8.308;2022-07-23T08:14:32;100414.06;;;27.60;95.43
15634;BME280;14654;48.898;8.308;2022-07-23T08:16:58;100409.34;;;27.52;95.94
15634;BME280;14654;48.898;8.308;2022-07-23T08:19:23;100411.63;;;27.68;95.73
15634;BME280;14654;48.898;8.308;2022-07-23T08:21:48;100410.50;;;27.94;94.50
15634;BME280;14654;48.898;8.308;2022-07-23T08:24:14;100422.22;;;28.14;93.03
15634;BME280;14654;48.898;8.308;2022-07-23T08:26:39;100417.00;;;28.24;92.52
15634;BME280;14654;48.898;8.308;2022-07-23T08:29:06;100424.94;;;28.35;91.85
15634;BME280;14654;48.898;8.308;2022-07-23T08:31:31;100425.09;;;28.34;90.60
15634;BME280;14654;48.898;8.308;2022-07-23T08:33:58;100426.16;;;28.31;89.81
15634;BME280;14654;48.898;8.308;2022-07-23T08:36:24;100432.09;;;28.35;90.08
15634;BME280;14654;48.898;8.308;2022-07-23T08:38:53;100433.41;;;28.40;90.42
15634;BME280;14654;48.898;8.308;2022-07-23T08:41:18;100443.28;;;28.50;89.62
15634;BME280;14654;48.898;8.308;2022-07-23T08:43:44;100440.38;;;28.53;89.70
15634;BME280;14654;48.898;8.308;2022-07-23T08:46:10;100434.19;;;28.52;89.82
15634;BME280;14654;48.898;8.308;2022-07-23T08:48:35;100434.47;;;28.49;89.21
15634;BME280;14654;48.898;8.308;2022-07-23T08:51:05;100428.53;;;28.45;89.56
15634;BME280;14654;48.898;8.308;2022-07-23T08:53:32;100430.50;;;28.43;89.24
15634;BME280;14654;48.898;8.308;2022-07-23T08:56:00;100434.81;;;28.44;89.41
15634;BME280;14654;48.898;8.308;2022-07-23T08:58:29;100427.78;;;28.55;89.81
15634;BME280;14654;48.898;8.308;2022-07-23T09:00:56;100429.81;;;28.63;88.64
15634;BME280;14654;48.898;8.308;2022-07-23T09:03:27;100420.09;;;28.73;88.10
15634;BME280;14654;48.898;8.308;2022-07-23T09:05:54;100425.09;;;28.87;87.92
15634;BME280;14654;48.898;8.308;2022-07-23T09:08:34;100423.28;;;29.09;86.97
15634;BME280;14654;48.898;8.308;2022-07-23T09:11:03;100424.59;;;29.15;85.48
15634;BME280;14654;48.898;8.308;2022-07-23T09:13:36;100420.53;;;29.20;85.42
15634;BME280;14654;48.898;8.308;2022-07-23T09:18:44;100406.72;;;29.27;85.00
15634;BME280;14654;48.898;8.308;2022-07-23T09:26:47;100413.53;;;28.98;84.52
15634;BME280;14654;48.898;8.308;2022-07-23T09:29:22;100412.66;;;28.88;83.97
15634;BME280;14654;48.898;8.308;2022-07-23T09:34:26;100409.59;;;28.93;84.53
15634;BME280;14654;48.898;8.308;2022-07-23T09:36:56;100398.22;;;28.90;83.23
15634;BME280;14654;48.898;8.308;2022-07-23T09:39:30;100398.28;;;28.79;82.54
15634;BME280;14654;48.898;8.308;2022-07-23T09:41:56;100402.91;;;28.77;82.73
15634;BME280;14654;48.898;8.308;2022-07-23T09:44:23;100411.47;;;28.81;82.10
15634;BME280;14654;48.898;8.308;2022-07-23T09:46:50;100409.00;;;28.89;82.39
15634;BME280;14654;48.898;8.308;2022-07-23T09:49:23;100406.78;;;28.94;82.72
15634;BME280;14654;48.898;8.308;2022-07-23T09:54:40;100410.09;;;29.08;81.32
15634;BME280;14654;48.898;8.308;2022-07-23T09:57:10;100414.59;;;29.07;77.94
15634;BME280;14654;48.898;8.308;2022-07-23T09:59:43;100409.91;;;28.99;78.19
15634;BME280;14654;48.898;8.308;2022-07-23T10:02:11;100407.25;;;28.99;78.20
15634;BME280;14654;48.898;8.308;2022-07-23T10:04:38;100410.34;;;29.04;78.24
15634;BME280;14654;48.898;8.308;2022-07-23T10:07:06;100404.09;;;29.15;77.22
15634;BME280;14654;48.898;8.308;2022-07-23T10:09:35;100405.38;;;29.21;77.55
15634;BME280;14654;48.898;8.308;2022-07-23T10:12:04;100406.41;;;29.30;77.50
15634;BME280;14654;48.898;8.308;2022-07-23T10:14:48;100414.03;;;29.34;77.10
15634;BME280;14654;48.898;8.308;2022-07-23T10:17:15;100406.50;;;29.40;76.20
15634;BME280;14654;48.898;8.308;2022-07-23T10:19:41;100410.34;;;29.47;75.52
15634;BME280;14654;48.898;8.308;2022-07-23T10:22:12;100399.88;;;29.65;75.30
15634;BME280;14654;48.898;8.308;2022-07-23T10:41:47;100401.97;;;30.02;73.38
15634;BME280;14654;48.898;8.308;2022-07-23T10:44:18;100399.84;;;30.06;73.36
15634;BME280;14654;48.898;8.308;2022-07-23T10:46:59;100408.97;;;30.13;73.84
15634;BME280;14654;48.898;8.308;2022-07-23T10:49:32;100404.63;;;30.12;72.49
15634;BME280;14654;48.898;8.308;2022-07-23T10:55:42;100397.19;;;30.06;72.33
15634;BME280;14654;48.898;8.308;2022-07-23T10:57:49;100402.78;;;30.03;72.55
15634;BME280;14654;48.898;8.308;2022-07-23T11:02:47;100401.28;;;30.10;72.68
15634;BME280;14654;48.898;8.308;2022-07-23T11:05:18;100403.22;;;30.18;72.31
15634;BME280;14654;48.898;8.308;2022-07-23T11:10:39;100401.84;;;30.23;72.74
15634;BME280;14654;48.898;8.308;2022-07-23T11:18:57;100398.75;;;30.67;72.03
15634;BME280;14654;48.898;8.308;2022-07-23T11:36:56;100392.81;;;31.41;69.21
15634;BME280;14654;48.898;8.308;2022-07-23T11:39:28;100392.28;;;31.37;68.81
15634;BME280;14654;48.898;8.308;2022-07-23T11:41:54;100393.16;;;31.38;68.75
15634;BME280;14654;48.898;8.308;2022-07-23T11:44:31;100389.81;;;31.54;68.75
15634;BME280;14654;48.898;8.308;2022-07-23T11:47:02;100393.16;;;31.66;68.87
15634;BME280;14654;48.898;8.308;2022-07-23T11:49:29;100379.66;;;31.85;69.47
15634;BME280;14654;48.898;8.308;2022-07-23T11:54:47;100393.03;;;31.85;68.54
15634;BME280;14654;48.898;8.308;2022-07-23T11:57:12;100394.59;;;31.88;67.83
15634;BME280;14654;48.898;8.308;2022-07-23T11:59:38;100382.34;;;31.85;67.32
15634;BME280;14654;48.898;8.308;2022-07-23T12:02:05;100380.06;;;31.90;67.52
15634;BME280;14654;48.898;8.308;2022-07-23T12:04:41;100368.22;;;31.93;67.44
15634;BME280;14654;48.898;8.308;2022-07-23T12:07:30;100377.78;;;31.96;66.64
15634;BME280;14654;48.898;8.308;2022-07-23T12:09:58;100376.56;;;31.90;65.50
15634;BME280;14654;48.898;8.308;2022-07-23T12:12:24;100366.75;;;31.81;65.24
15634;BME280;14654;48.898;8.308;2022-07-23T12:14:56;100362.78;;;31.85;65.27
15634;BME280;14654;48.898;8.308;2022-07-23T12:17:28;100365.22;;;31.96;65.92
15634;BME280;14654;48.898;8.308;2022-07-23T12:19:56;100363.41;;;31.97;66.50
15634;BME280;14654;48.898;8.308;2022-07-23T12:22:24;100365.22;;;31.96;65.86
15634;BME280;14654;48.898;8.308;2022-07-23T12:27:23;100361.13;;;32.20;66.11
15634;BME280;14654;48.898;8.308;2022-07-23T12:29:49;100360.75;;;32.33;66.16
15634;BME280;14654;48.898;8.308;2022-07-23T12:32:26;100360.53;;;32.44;65.88
15634;BME280;14654;48.898;8.308;2022-07-23T12:35:04;100360.75;;;32.15;65.73
15634;BME280;14654;48.898;8.308;2022-07-23T12:37:32;100355.97;;;31.90;65.98
15634;BME280;14654;48.898;8.308;2022-07-23T12:39:58;100348.88;;;31.81;66.43
15634;BME280;14654;48.898;8.308;2022-07-23T12:42:24;100350.56;;;31.82;66.99
15634;BME280;14654;48.898;8.308;2022-07-23T12:45:10;100352.38;;;31.82;67.54
15634;BME280;14654;48.898;8.308;2022-07-23T12:47:57;100350.81;;;31.61;67.58
15634;BME280;14654;48.898;8.308;2022-07-23T12:50:37;100354.31;;;31.34;66.44
15634;BME280;14654;48.898;8.308;2022-07-23T12:55:29;100353.13;;;31.18;65.93
15634;BME280;14654;48.898;8.308;2022-07-23T12:58:20;100353.13;;;31.18;66.22
15634;BME280;14654;48.898;8.308;2022-07-23T13:03:24;100349.47;;;30.99;66.87
15634;BME280;14654;48.898;8.308;2022-07-23T13:05:50;100349.16;;;31.12;66.94
15634;BME280;14654;48.898;8.308;2022-07-23T13:08:16;100352.13;;;31.19;67.64
15634;BME280;14654;48.898;8.308;2022-07-23T13:10:41;100341.53;;;31.27;67.45
15634;BME280;14654;48.898;8.308;2022-07-23T13:13:10;100346.00;;;31.37;67.38
15634;BME280;14654;48.898;8.308;2022-07-23T13:15:36;100346.28;;;31.34;66.81
15634;BME280;14654;48.898;8.308;2022-07-23T13:18:04;100346.50;;;31.22;66.71
15634;BME280;14654;48.898;8.308;2022-07-23T13:20:29;100344.94;;;31.10;66.28
15634;BME280;14654;48.898;8.308;2022-07-23T13:22:57;100344.59;;;30.95;65.96
15634;BME280;14654;48.898;8.308;2022-07-23T13:25:22;100348.69;;;30.89;66.22
15634;BME280;14654;48.898;8.308;2022-07-23T13:27:48;100349.94;;;30.85;66.92
15634;BME280;14654;48.898;8.308;2022-07-23T13:30:13;100351.09;;;30.82;67.65
15634;BME280;14654;48.898;8.308;2022-07-23T13:32:40;100344.88;;;30.82;68.01
15634;BME280;14654;48.898;8.308;2022-07-23T13:35:06;100346.56;;;30.83;67.64
15634;BME280;14654;48.898;8.308;2022-07-23T13:37:31;100349.13;;;30.84;67.40
15634;BME280;14654;48.898;8.308;2022-07-23T13:39:57;100338.97;;;30.88;67.88
15634;BME280;14654;48.898;8.308;2022-07-23T13:42:22;100339.09;;;30.96;68.11
15634;BME280;14654;48.898;8.308;2022-07-23T13:44:48;100342.97;;;31.12;68.42
15634;BME280;14654;48.898;8.308;2022-07-23T13:47:13;100332.28;;;31.22;67.08
15634;BME280;14654;48.898;8.308;2022-07-23T13:49:38;100343.66;;;31.24;65.74
15634;BME280;14654;48.898;8.308;2022-07-23T13:52:04;100337.50;;;31.23;64.79
15634;BME280;14654;48.898;8.308;2022-07-23T13:54:29;100344.59;;;31.32;65.34
15634;BME280;14654;48.898;8.308;2022-07-23T13:56:55;100332.72;;;31.45;65.03